createdAt,value
2022-09-25T00:00:40.051Z,98065.88
2022-09-25T00:03:41.374Z,98066.69
2022-09-25T00:06:42.696Z,98051.88
2022-09-25T00:09:44.007Z,98047.59
2022-09-25T00:12:45.333Z,98045.06
2022-09-25T00:15:47.387Z,98050.38
2022-09-25T00:19:07.528Z,98054.00
2022-09-25T00:22:08.899Z,98048.75
2022-09-25T00:25:11.050Z,98054.91
2022-09-25T00:28:18.215Z,98054.91
2022-09-25T00:31:21.222Z,98054.06
2022-09-25T00:34:22.644Z,98047.13
2022-09-25T00:37:24.043Z,98054.94
2022-09-25T00:40:25.439Z,98057.53
2022-09-25T00:43:34.655Z,98045.31
2022-09-25T00:46:40.467Z,98040.94
2022-09-25T00:49:41.833Z,98039.22
2022-09-25T00:52:43.408Z,98041.97
2022-09-25T00:55:44.737Z,98042.81
2022-09-25T00:58:46.084Z,98038.53
2022-09-25T01:01:47.514Z,98030.69
2022-09-25T01:04:48.904Z,98030.75
2022-09-25T01:07:50.421Z,98022.00
2022-09-25T01:10:51.857Z,98034.16
2022-09-25T01:13:54.023Z,98031.53
2022-09-25T01:17:13.675Z,98028.91
2022-09-25T01:20:18.053Z,98037.66
2022-09-25T01:23:38.220Z,98035.00
2022-09-25T01:26:39.519Z,98030.59
2022-09-25T01:29:53.941Z,98024.47
2022-09-25T01:33:13.651Z,98023.56
2022-09-25T01:36:16.353Z,98023.56
2022-09-25T01:39:37.202Z,98016.53
2022-09-25T01:43:01.855Z,98019.16
2022-09-25T01:46:04.842Z,98020.97
2022-09-25T01:49:07.167Z,98016.63
2022-09-25T01:52:10.371Z,98017.47
2022-09-25T01:55:19.231Z,98016.63
2022-09-25T01:58:39.501Z,98011.34
2022-09-25T02:01:41.117Z,98014.78
2022-09-25T02:05:08.741Z,98011.28
2022-09-25T02:08:20.893Z,98006.88
2022-09-25T02:11:22.242Z,98011.25
2022-09-25T02:14:26.363Z,98005.16
2022-09-25T02:18:00.470Z,98005.22
2022-09-25T02:21:13.770Z,98017.53
2022-09-25T02:24:33.884Z,98013.19
2022-09-25T02:27:35.367Z,98008.81
2022-09-25T02:30:36.761Z,98004.50
2022-09-25T02:33:38.329Z,98000.16
2022-09-25T02:36:39.725Z,98008.09
2022-09-25T02:39:41.282Z,97998.56
2022-09-25T02:43:11.961Z,98003.81
2022-09-25T02:46:14.866Z,98005.53
2022-09-25T02:49:42.657Z,97995.94
2022-09-25T02:52:49.898Z,98002.94
2022-09-25T02:56:03.046Z,98000.41
2022-09-25T02:59:08.853Z,98003.19
2022-09-25T03:02:11.720Z,98002.31
2022-09-25T03:05:13.249Z,98010.25
2022-09-25T03:08:33.357Z,98005.97
2022-09-25T03:11:35.949Z,98012.19
2022-09-25T03:14:37.408Z,98007.03
2022-09-25T03:17:39.651Z,98005.31
2022-09-25T03:20:41.000Z,98016.66
2022-09-25T03:23:42.295Z,98006.22
2022-09-25T03:26:43.633Z,98015.75
2022-09-25T03:29:45.011Z,98012.25
2022-09-25T03:32:46.386Z,98008.81
2022-09-25T03:35:47.741Z,98006.25
2022-09-25T03:38:50.531Z,98001.06
2022-09-25T03:41:51.903Z,98002.78
2022-09-25T03:44:53.219Z,98002.69
2022-09-25T03:47:54.534Z,97994.00
2022-09-25T03:50:56.247Z,97986.09
2022-09-25T03:53:57.544Z,98001.69
2022-09-25T03:56:58.897Z,97993.88
2022-09-25T04:00:02.117Z,97998.16
2022-09-25T04:03:03.450Z,97991.22
2022-09-25T04:06:05.022Z,97992.94
2022-09-25T04:09:06.323Z,97997.44
2022-09-25T04:12:08.866Z,98002.63
2022-09-25T04:15:10.256Z,98005.31
2022-09-25T04:18:11.573Z,97995.75
2022-09-25T04:21:13.356Z,98004.38
2022-09-25T04:24:33.324Z,98010.44
2022-09-25T04:27:34.640Z,98011.25
2022-09-25T04:30:35.963Z,98014.69
2022-09-25T04:33:46.482Z,98018.16
2022-09-25T04:36:47.913Z,98017.34
2022-09-25T04:39:49.262Z,98019.00
2022-09-25T04:42:54.811Z,98025.94
2022-09-25T04:45:56.275Z,98013.69
2022-09-25T04:48:57.621Z,98020.63
2022-09-25T04:51:59.015Z,98017.16
2022-09-25T04:55:01.119Z,98021.50
2022-09-25T04:58:02.483Z,98018.06
2022-09-25T05:01:09.014Z,98019.78
2022-09-25T05:04:10.482Z,98025.91
2022-09-25T05:07:11.965Z,98024.22
2022-09-25T05:10:14.717Z,98028.66
2022-09-25T05:13:16.034Z,98033.03
2022-09-25T05:16:17.487Z,98024.28
2022-09-25T05:19:18.833Z,98026.03
2022-09-25T05:22:20.165Z,98022.53
2022-09-25T05:25:23.244Z,98030.34
2022-09-25T05:28:24.792Z,98019.00
2022-09-25T05:31:26.273Z,98024.19
2022-09-25T05:34:27.899Z,98018.06
2022-09-25T05:37:29.390Z,98023.31
2022-09-25T05:40:30.851Z,98030.25
2022-09-25T05:43:32.380Z,98031.97
2022-09-25T05:46:34.002Z,98023.22
2022-09-25T05:49:35.512Z,98023.25
2022-09-25T05:52:36.823Z,98022.34
2022-09-25T05:55:38.162Z,98031.91
2022-09-25T05:58:39.497Z,98023.25
2022-09-25T06:01:41.274Z,98025.91
2022-09-25T06:04:42.725Z,98032.88
2022-09-25T06:07:44.077Z,98032.91
2022-09-25T06:10:50.962Z,98036.31
2022-09-25T06:13:54.725Z,98027.56
2022-09-25T06:16:59.506Z,98033.66
2022-09-25T06:20:00.869Z,98037.13
2022-09-25T06:23:02.231Z,98042.41
2022-09-25T06:26:04.043Z,98043.22
2022-09-25T06:29:07.665Z,98044.88
2022-09-25T06:32:09.002Z,98039.59
2022-09-25T06:35:10.375Z,98043.13
2022-09-25T06:38:11.711Z,98050.09
2022-09-25T06:41:13.225Z,98042.22
2022-09-25T06:44:14.552Z,98051.97
2022-09-25T06:47:18.763Z,98052.00
2022-09-25T06:50:20.933Z,98059.81
2022-09-25T06:53:23.094Z,98051.97
2022-09-25T06:56:24.600Z,98057.03
2022-09-25T06:59:25.930Z,98051.75
2022-09-25T07:02:45.865Z,98052.56
2022-09-25T07:05:48.111Z,98056.03
2022-09-25T07:08:49.708Z,98062.19
2022-09-25T07:11:52.939Z,98056.91
2022-09-25T07:14:54.277Z,98056.84
2022-09-25T07:17:55.633Z,98054.97
2022-09-25T07:21:04.147Z,98056.63
2022-09-25T07:24:05.899Z,98060.00
2022-09-25T07:27:07.277Z,98056.28
2022-09-25T07:30:08.987Z,98061.38
2022-09-25T07:33:10.374Z,98060.44
2022-09-25T07:36:12.125Z,98058.69
2022-09-25T07:39:18.164Z,98069.97
2022-09-25T07:42:20.001Z,98078.63
2022-09-25T07:45:21.330Z,98076.03
2022-09-25T07:48:23.233Z,98083.09
2022-09-25T07:51:26.399Z,98081.28
2022-09-25T07:54:27.773Z,98085.50
2022-09-25T07:57:29.842Z,98077.56
2022-09-25T08:00:31.730Z,98083.63
2022-09-25T08:03:33.032Z,98087.94
2022-09-25T08:06:35.021Z,98091.25
2022-09-25T08:09:36.433Z,98095.84
2022-09-25T08:12:40.870Z,98089.59
2022-09-25T08:15:42.321Z,98096.41
2022-09-25T08:18:45.431Z,98090.19
2022-09-25T08:21:46.812Z,98094.50
2022-09-25T08:24:49.419Z,98100.56
2022-09-25T08:27:51.504Z,98102.31
2022-09-25T08:30:54.147Z,98105.75
2022-09-25T08:33:55.654Z,98099.59
2022-09-25T08:36:57.994Z,98097.72
2022-09-25T08:39:59.713Z,98096.94
2022-09-25T08:43:01.054Z,98092.88
2022-09-25T08:46:21.672Z,98095.50
2022-09-25T08:49:26.246Z,98100.41
2022-09-25T08:52:27.603Z,98093.38
2022-09-25T08:55:48.289Z,98091.53
2022-09-25T08:58:53.854Z,98084.47
2022-09-25T09:02:10.563Z,98095.19
2022-09-25T09:05:22.265Z,98088.31
2022-09-25T09:08:27.847Z,98085.94
2022-09-25T09:11:33.810Z,98088.56
2022-09-25T09:14:36.693Z,98090.38
2022-09-25T09:17:40.458Z,98088.59
2022-09-25T09:20:43.677Z,98101.47
2022-09-25T09:23:53.551Z,98100.19
2022-09-25T09:27:07.191Z,98113.81
2022-09-25T09:30:25.446Z,98111.66
2022-09-25T09:33:42.452Z,98118.72
2022-09-25T09:36:49.154Z,98120.88
2022-09-25T09:40:09.355Z,98120.47
2022-09-25T09:43:22.978Z,98118.69
2022-09-25T09:46:34.459Z,98122.31
2022-09-25T09:49:36.012Z,98126.66
2022-09-25T09:52:38.173Z,98122.59
2022-09-25T09:55:44.356Z,98124.50
2022-09-25T09:58:50.502Z,98128.88
2022-09-25T10:02:03.164Z,98125.22
2022-09-25T10:05:06.670Z,98133.91
2022-09-25T10:08:11.075Z,98122.31
2022-09-25T10:11:14.669Z,98129.28
2022-09-25T10:14:21.147Z,98135.66
2022-09-25T10:17:23.494Z,98134.69
2022-09-25T10:20:24.893Z,98124.75
2022-09-25T10:23:39.385Z,98119.09
2022-09-25T10:26:40.746Z,98122.78
2022-09-25T10:29:42.080Z,98122.97
2022-09-25T10:32:46.389Z,98128.28
2022-09-25T10:35:48.779Z,98128.47
2022-09-25T10:38:54.676Z,98128.34
2022-09-25T10:42:05.983Z,98129.19
2022-09-25T10:45:22.711Z,98134.19
2022-09-25T10:48:42.683Z,98129.88
2022-09-25T10:52:05.297Z,98131.31
2022-09-25T10:55:14.583Z,98129.88
2022-09-25T10:58:27.609Z,98131.75
2022-09-25T11:01:36.029Z,98134.34
2022-09-25T11:04:37.846Z,98129.09
2022-09-25T11:07:39.166Z,98129.91
2022-09-25T11:10:49.608Z,98133.81
2022-09-25T11:13:51.071Z,98138.19
2022-09-25T11:16:56.036Z,98135.41
2022-09-25T11:20:29.404Z,98141.25
2022-09-25T11:23:41.483Z,98133.47
2022-09-25T11:26:51.359Z,98138.75
2022-09-25T11:29:55.743Z,98129.09
2022-09-25T11:33:03.284Z,98138.19
2022-09-25T11:36:23.460Z,98130.97
2022-09-25T11:39:48.698Z,98134.78
2022-09-25T11:42:58.588Z,98129.13
2022-09-25T11:46:02.592Z,98130.94
2022-09-25T11:49:15.615Z,98129.94
2022-09-25T11:52:20.266Z,98133.03
2022-09-25T11:55:34.621Z,98131.47
2022-09-25T11:58:55.613Z,98126.47
2022-09-25T12:01:58.295Z,98135.25
2022-09-25T12:05:04.906Z,98138.91
2022-09-25T12:08:26.899Z,98134.47
2022-09-25T12:11:46.690Z,98133.72
2022-09-25T12:14:48.222Z,98131.00
2022-09-25T12:17:53.199Z,98139.03
2022-09-25T12:20:54.450Z,98127.91
2022-09-25T12:24:19.098Z,98129.88
2022-09-25T12:27:23.417Z,98125.59
2022-09-25T12:30:30.087Z,98118.84
2022-09-25T12:33:40.536Z,98113.69
2022-09-25T12:36:43.210Z,98104.81
2022-09-25T12:39:45.033Z,98104.78
2022-09-25T12:42:55.714Z,98108.47
2022-09-25T12:45:57.071Z,98110.81
2022-09-25T12:48:58.407Z,98113.28
2022-09-25T12:52:01.732Z,98117.41
2022-09-25T12:55:13.509Z,98108.66
2022-09-25T12:58:18.462Z,98104.00
2022-09-25T13:01:46.667Z,98096.75
2022-09-25T13:04:57.012Z,98100.97
2022-09-25T13:07:59.874Z,98100.78
2022-09-25T13:11:08.019Z,98101.31
2022-09-25T13:14:11.862Z,98098.47
2022-09-25T13:17:13.450Z,98101.88
2022-09-25T13:20:27.081Z,98099.38
2022-09-25T13:23:33.673Z,98100.97
2022-09-25T13:26:42.730Z,98093.97
2022-09-25T13:29:44.695Z,98098.06
2022-09-25T13:32:50.357Z,98102.09
2022-09-25T13:36:02.421Z,98101.75
2022-09-25T13:39:33.082Z,98098.69
2022-09-25T13:42:39.072Z,98099.56
2022-09-25T13:45:41.340Z,98100.19
2022-09-25T13:48:42.790Z,98100.06
2022-09-25T13:51:44.537Z,98106.63
2022-09-25T13:54:45.844Z,98100.31
2022-09-25T13:57:57.312Z,98096.56
2022-09-25T14:00:59.432Z,98094.88
2022-09-25T14:04:00.917Z,98090.47
2022-09-25T14:07:06.548Z,98089.50
2022-09-25T14:10:08.223Z,98094.69
2022-09-25T14:13:13.042Z,98091.31
2022-09-25T14:16:43.976Z,98088.38
2022-09-25T14:19:46.244Z,98082.31
2022-09-25T14:22:53.191Z,98083.31
2022-09-25T14:26:01.293Z,98078.72
2022-09-25T14:29:02.629Z,98083.56
2022-09-25T14:32:07.084Z,98071.97
2022-09-25T14:35:11.407Z,98077.66
2022-09-25T14:38:12.754Z,98066.63
2022-09-25T14:41:39.510Z,98070.25
2022-09-25T14:44:40.792Z,98073.66
2022-09-25T14:47:43.538Z,98069.53
2022-09-25T14:50:45.830Z,98063.31
2022-09-25T14:54:05.465Z,98071.75
2022-09-25T14:57:07.738Z,98068.28
2022-09-25T15:00:09.490Z,98062.88
2022-09-25T15:03:11.711Z,98065.78
2022-09-25T15:06:16.287Z,98066.44
2022-09-25T15:09:25.079Z,98066.56
2022-09-25T15:12:27.348Z,98059.16
2022-09-25T15:15:28.711Z,98059.41
2022-09-25T15:18:30.038Z,98061.38
2022-09-25T15:21:32.102Z,98058.69
2022-09-25T15:24:34.252Z,98063.25
2022-09-25T15:27:36.995Z,98070.56
2022-09-25T15:30:41.761Z,98075.97
2022-09-25T15:33:43.171Z,98071.38
2022-09-25T15:36:44.749Z,98075.84
2022-09-25T15:39:46.075Z,98070.41
2022-09-25T15:42:47.785Z,98066.22
2022-09-25T15:46:10.272Z,98055.09
2022-09-25T15:49:31.027Z,98052.44
2022-09-25T15:52:33.877Z,98039.50
2022-09-25T15:55:35.283Z,98036.13
2022-09-25T15:58:43.074Z,98031.66
2022-09-25T16:02:03.407Z,98033.47
2022-09-25T16:05:05.780Z,98037.88
2022-09-25T16:08:16.438Z,98033.53
2022-09-25T16:11:17.935Z,98038.78
2022-09-25T16:14:29.124Z,98032.69
2022-09-25T16:17:35.599Z,98029.97
2022-09-25T16:20:37.250Z,98031.69
2022-09-25T16:23:40.037Z,98030.75
2022-09-25T16:26:45.299Z,98029.13
2022-09-25T16:29:46.627Z,98030.06
2022-09-25T16:33:04.969Z,98027.38
2022-09-25T16:36:17.518Z,98029.09
2022-09-25T16:39:26.733Z,98028.19
2022-09-25T16:42:31.564Z,98021.28
2022-09-25T16:45:34.208Z,98028.31
2022-09-25T16:48:37.341Z,98022.06
2022-09-25T16:51:45.445Z,98028.97
2022-09-25T16:54:48.247Z,98027.19
2022-09-25T16:57:50.499Z,98028.06
2022-09-25T17:00:51.911Z,98025.50
2022-09-25T17:03:55.439Z,98023.06
2022-09-25T17:06:58.061Z,98023.06
2022-09-25T17:10:01.006Z,98021.28
2022-09-25T17:13:02.435Z,98030.94
2022-09-25T17:16:04.034Z,98017.78
2022-09-25T17:19:08.264Z,98023.97
2022-09-25T17:22:09.792Z,98030.13
2022-09-25T17:25:19.170Z,98024.94
2022-09-25T17:28:20.549Z,98024.84
2022-09-25T17:31:22.198Z,98029.22
2022-09-25T17:34:28.583Z,98029.22
2022-09-25T17:37:30.074Z,98021.50
2022-09-25T17:40:33.210Z,98027.59
2022-09-25T17:43:34.707Z,98024.97
2022-09-25T17:46:36.307Z,98024.97
2022-09-25T17:49:37.888Z,98027.53
2022-09-25T17:52:39.244Z,98024.97
2022-09-25T17:55:40.632Z,98033.63
2022-09-25T17:58:45.423Z,98036.16
2022-09-25T18:01:46.967Z,98039.63
2022-09-25T18:04:48.450Z,98050.19
2022-09-25T18:07:49.858Z,98048.38
2022-09-25T18:10:54.798Z,98052.78
2022-09-25T18:14:00.933Z,98056.34
2022-09-25T18:17:02.362Z,98058.16
2022-09-25T18:20:22.658Z,98052.00
2022-09-25T18:23:24.017Z,98059.75
2022-09-25T18:26:30.464Z,98060.66
2022-09-25T18:29:32.601Z,98062.44
2022-09-25T18:32:34.064Z,98061.59
2022-09-25T18:35:35.441Z,98058.06
2022-09-25T18:38:36.827Z,98062.41
2022-09-25T18:41:38.499Z,98056.34
2022-09-25T18:44:42.578Z,98052.88
2022-09-25T18:47:45.668Z,98058.16
2022-09-25T18:50:47.404Z,98055.53
2022-09-25T18:53:51.947Z,98052.88
2022-09-25T18:56:54.667Z,98057.22
2022-09-25T18:59:56.041Z,98061.59
2022-09-25T19:02:57.538Z,98057.22
2022-09-25T19:05:59.854Z,98066.81
2022-09-25T19:09:01.331Z,98072.91
2022-09-25T19:12:03.724Z,98068.69
2022-09-25T19:15:05.561Z,98071.44
2022-09-25T19:18:06.932Z,98074.88
2022-09-25T19:21:08.357Z,98082.94
2022-09-25T19:24:09.690Z,98080.47
2022-09-25T19:27:11.367Z,98089.22
2022-09-25T19:30:12.830Z,98089.22
2022-09-25T19:33:14.205Z,98088.44
2022-09-25T19:36:21.841Z,98094.66
2022-09-25T19:39:23.322Z,98089.44
2022-09-25T19:42:24.700Z,98094.75
2022-09-25T19:45:26.063Z,98097.34
2022-09-25T19:48:27.402Z,98102.50
2022-09-25T19:51:28.747Z,98096.50
2022-09-25T19:54:30.080Z,98098.34
2022-09-25T19:57:31.473Z,98097.34
2022-09-25T20:00:32.879Z,98101.81
2022-09-25T20:03:34.227Z,98099.19
2022-09-25T20:06:36.520Z,98103.53
2022-09-25T20:09:40.010Z,98106.09
2022-09-25T20:12:41.620Z,98107.94
2022-09-25T20:15:45.711Z,98108.84
2022-09-25T20:18:47.605Z,98102.81
2022-09-25T20:21:48.974Z,98110.53
2022-09-25T20:24:51.176Z,98105.44
2022-09-25T20:27:52.598Z,98106.31
2022-09-25T20:30:54.091Z,98114.13
2022-09-25T20:33:55.495Z,98108.88
2022-09-25T20:36:56.943Z,98107.13
2022-09-25T20:39:58.747Z,98106.22
2022-09-25T20:43:00.228Z,98107.19
2022-09-25T20:46:04.029Z,98109.78
2022-09-25T20:49:05.466Z,98110.69
2022-09-25T20:52:06.814Z,98109.81
2022-09-25T20:55:08.425Z,98102.81
2022-09-25T20:58:10.292Z,98107.03
2022-09-25T21:01:12.664Z,98105.31
2022-09-25T21:04:17.993Z,98104.47
2022-09-25T21:07:19.503Z,98102.66
2022-09-25T21:10:20.884Z,98101.81
2022-09-25T21:13:22.274Z,98102.69
2022-09-25T21:16:23.858Z,98094.06
2022-09-25T21:19:25.320Z,98094.94
2022-09-25T21:22:26.818Z,98102.78
2022-09-25T21:25:29.001Z,98104.53
2022-09-25T21:28:31.338Z,98099.25
2022-09-25T21:31:35.271Z,98094.94
2022-09-25T21:34:36.653Z,98096.69
2022-09-25T21:37:38.275Z,98098.44
2022-09-25T21:40:39.700Z,98090.63
2022-09-25T21:43:41.096Z,98093.28
2022-09-25T21:46:42.738Z,98086.34
2022-09-25T21:49:44.168Z,98081.22
2022-09-25T21:52:45.636Z,98087.41
2022-09-25T21:55:47.166Z,98090.09
2022-09-25T21:58:48.759Z,98092.72
2022-09-25T22:01:50.242Z,98097.84
2022-09-25T22:04:51.650Z,98084.78
2022-09-25T22:07:53.387Z,98086.53
2022-09-25T22:10:55.625Z,98083.09
2022-09-25T22:13:57.683Z,98086.59
2022-09-25T22:16:59.176Z,98092.69
2022-09-25T22:20:05.043Z,98098.88
2022-09-25T22:23:06.976Z,98095.47
2022-09-25T22:26:08.379Z,98091.97
2022-09-25T22:29:09.759Z,98097.19
2022-09-25T22:32:11.143Z,98093.78
2022-09-25T22:35:12.554Z,98099.00
2022-09-25T22:38:13.939Z,98092.00
2022-09-25T22:41:15.278Z,98085.84
2022-09-25T22:44:16.840Z,98080.59
2022-09-25T22:47:18.184Z,98077.09
2022-09-25T22:50:19.522Z,98071.03
2022-09-25T22:53:21.662Z,98067.50
2022-09-25T22:56:23.080Z,98066.66
2022-09-25T22:59:24.456Z,98072.75
2022-09-25T23:02:25.806Z,98073.69
2022-09-25T23:05:27.265Z,98073.78
2022-09-25T23:08:28.689Z,98065.94
2022-09-25T23:11:30.143Z,98068.50
2022-09-25T23:14:31.597Z,98072.84
2022-09-25T23:17:32.964Z,98061.50
2022-09-25T23:20:34.379Z,98064.13
2022-09-25T23:23:35.798Z,98061.56
2022-09-25T23:26:37.156Z,98061.50
2022-09-25T23:29:38.490Z,98056.31
2022-09-25T23:32:39.844Z,98059.00
2022-09-25T23:35:41.182Z,98058.94
2022-09-25T23:38:42.584Z,98060.66
2022-09-25T23:41:43.950Z,98052.03
2022-09-25T23:44:45.409Z,98045.06
2022-09-25T23:47:46.744Z,98044.13
2022-09-25T23:50:51.197Z,98042.38
2022-09-25T23:53:57.153Z,98044.19
2022-09-25T23:56:59.351Z,98051.19
